9MPSA EGKK-EGSS
Flight info
| Callsign | 9MPSA |
|---|---|
| Flight time | 0h 32m |
| Altitude | 9000 |
| Route | EGKK/26L FRANE DCT SODVU DCT LOFFO EGSS/22 |
| Aircraft | BE58/L-SDFGRY/C |
Departure
| Time | 2026-04-16 14:03 |
|---|---|
| Airport | London Gatwick Airport (EGKK) |
Arrival
| Time | 2026-04-16 14:35 |
|---|---|
| Airport | London Stansted Airport (EGSS) |
| Time | Latitude | Longitude | Altitude | Speed | Heading |
|---|---|---|---|---|---|
| 2026-04-16 13:37 | 51.14767 | -0.17236 | 197 ft | 0 kts | 57° |
| 2026-04-16 13:52 | 51.14772 | -0.17225 | 197 ft | 0 kts | 57° |
| 2026-04-16 13:52 | 51.14785 | -0.17246 | 197 ft | 13 kts | 252° |
| 2026-04-16 13:52 | 51.14738 | -0.17452 | 203 ft | 25 kts | 246° |
| 2026-04-16 13:52 | 51.14749 | -0.17480 | 198 ft | 9 kts | 71° |
| 2026-04-16 13:53 | 51.14801 | -0.17446 | 197 ft | 10 kts | 299° |
| 2026-04-16 13:53 | 51.14800 | -0.17569 | 198 ft | 13 kts | 273° |
| 2026-04-16 13:53 | 51.14867 | -0.17677 | 202 ft | 5 kts | 344° |
| 2026-04-16 13:53 | 51.14867 | -0.17678 | 197 ft | 0 kts | 343° |
| 2026-04-16 14:00 | 51.14869 | -0.17678 | 197 ft | 1 kts | 343° |
| 2026-04-16 14:00 | 51.14906 | -0.17693 | 198 ft | 10 kts | 350° |
| 2026-04-16 14:01 | 51.14982 | -0.17722 | 200 ft | 9 kts | 328° |
| 2026-04-16 14:01 | 51.14983 | -0.17780 | 200 ft | 3 kts | 258° |
| 2026-04-16 14:02 | 51.14943 | -0.18059 | 203 ft | 62 kts | 258° |
| 2026-04-16 14:02 | 51.14824 | -0.18958 | 348 ft | 89 kts | 257° |
| 2026-04-16 14:02 | 51.14688 | -0.20062 | 490 ft | 112 kts | 253° |
| 2026-04-16 14:03 | 51.14505 | -0.21321 | 688 ft | 123 kts | 255° |
| 2026-04-16 14:03 | 51.14302 | -0.22789 | 893 ft | 146 kts | 255° |
| 2026-04-16 14:03 | 51.14092 | -0.24400 | 1095 ft | 155 kts | 256° |
| 2026-04-16 14:03 | 51.13908 | -0.26158 | 1302 ft | 163 kts | 268° |
| 2026-04-16 14:04 | 51.14362 | -0.27840 | 1479 ft | 174 kts | 311° |
| 2026-04-16 14:04 | 51.15473 | -0.28690 | 1675 ft | 182 kts | 343° |
| 2026-04-16 14:04 | 51.16738 | -0.28775 | 1853 ft | 190 kts | 12° |
| 2026-04-16 14:04 | 51.17877 | -0.27689 | 2038 ft | 191 kts | 42° |
| 2026-04-16 14:05 | 51.18839 | -0.26244 | 2221 ft | 192 kts | 44° |
| 2026-04-16 14:05 | 51.19821 | -0.24737 | 2404 ft | 194 kts | 42° |
| 2026-04-16 14:05 | 51.20794 | -0.23236 | 2574 ft | 195 kts | 44° |
| 2026-04-16 14:05 | 51.21762 | -0.21724 | 2751 ft | 195 kts | 44° |
| 2026-04-16 14:06 | 51.22733 | -0.20212 | 2929 ft | 196 kts | 44° |
| 2026-04-16 14:06 | 51.23707 | -0.18687 | 3141 ft | 196 kts | 44° |
| 2026-04-16 14:06 | 51.24673 | -0.17169 | 3389 ft | 194 kts | 44° |
| 2026-04-16 14:06 | 51.25636 | -0.15646 | 3639 ft | 195 kts | 44° |
| 2026-04-16 14:07 | 51.26598 | -0.14128 | 3886 ft | 194 kts | 44° |
| 2026-04-16 14:07 | 51.27558 | -0.12614 | 4137 ft | 195 kts | 44° |
| 2026-04-16 14:07 | 51.28525 | -0.11082 | 4384 ft | 195 kts | 44° |
| 2026-04-16 14:07 | 51.29502 | -0.09558 | 4647 ft | 196 kts | 42° |
| 2026-04-16 14:08 | 51.30460 | -0.07978 | 4704 ft | 207 kts | 59° |
| 2026-04-16 14:08 | 51.30795 | -0.05718 | 4595 ft | 213 kts | 99° |
| 2026-04-16 14:08 | 51.30485 | -0.03492 | 4853 ft | 201 kts | 107° |
| 2026-04-16 14:08 | 51.30301 | -0.01287 | 5103 ft | 200 kts | 92° |
| 2026-04-16 14:09 | 51.30494 | 0.00907 | 5351 ft | 200 kts | 79° |
| 2026-04-16 14:09 | 51.30817 | 0.03060 | 5598 ft | 199 kts | 78° |
| 2026-04-16 14:09 | 51.31113 | 0.05197 | 5843 ft | 199 kts | 80° |
| 2026-04-16 14:09 | 51.31399 | 0.07394 | 6089 ft | 200 kts | 80° |
| 2026-04-16 14:10 | 51.31677 | 0.09533 | 6340 ft | 199 kts | 80° |
| 2026-04-16 14:10 | 51.31964 | 0.11728 | 6594 ft | 200 kts | 80° |
| 2026-04-16 14:10 | 51.32248 | 0.13911 | 6840 ft | 201 kts | 80° |
| 2026-04-16 14:10 | 51.32532 | 0.16104 | 7089 ft | 202 kts | 80° |
| 2026-04-16 14:11 | 51.32818 | 0.18306 | 7341 ft | 203 kts | 79° |
| 2026-04-16 14:11 | 51.33108 | 0.20528 | 7592 ft | 205 kts | 80° |
| 2026-04-16 14:11 | 51.33394 | 0.22734 | 7838 ft | 206 kts | 79° |
| 2026-04-16 14:11 | 51.33686 | 0.25001 | 8087 ft | 206 kts | 80° |
| 2026-04-16 14:12 | 51.33977 | 0.27256 | 8344 ft | 207 kts | 80° |
| 2026-04-16 14:12 | 51.34269 | 0.29522 | 8591 ft | 209 kts | 80° |
| 2026-04-16 14:12 | 51.34561 | 0.31801 | 8839 ft | 210 kts | 79° |
| 2026-04-16 14:12 | 51.34859 | 0.34092 | 9090 ft | 210 kts | 79° |
| 2026-04-16 14:13 | 51.35159 | 0.36423 | 9173 ft | 220 kts | 80° |
| 2026-04-16 14:13 | 51.35470 | 0.38871 | 9182 ft | 228 kts | 79° |
| 2026-04-16 14:13 | 51.35791 | 0.41375 | 9185 ft | 232 kts | 79° |
| 2026-04-16 14:13 | 51.36113 | 0.43913 | 9184 ft | 233 kts | 79° |
| 2026-04-16 14:14 | 51.36438 | 0.46466 | 9183 ft | 234 kts | 79° |
| 2026-04-16 14:14 | 51.36765 | 0.49031 | 9172 ft | 235 kts | 79° |
| 2026-04-16 14:14 | 51.37091 | 0.51600 | 9172 ft | 235 kts | 80° |
| 2026-04-16 14:14 | 51.37415 | 0.54169 | 9174 ft | 236 kts | 80° |
| 2026-04-16 14:15 | 51.37787 | 0.56641 | 9165 ft | 228 kts | 70° |
| 2026-04-16 14:15 | 51.38592 | 0.58877 | 9160 ft | 231 kts | 49° |
| 2026-04-16 14:15 | 51.39796 | 0.60572 | 9154 ft | 230 kts | 29° |
| 2026-04-16 14:15 | 51.41257 | 0.61553 | 9156 ft | 227 kts | 9° |
| 2026-04-16 14:16 | 51.42802 | 0.61739 | 9156 ft | 221 kts | 350° |
| 2026-04-16 14:16 | 51.44297 | 0.61390 | 9162 ft | 220 kts | 346° |
| 2026-04-16 14:16 | 51.45811 | 0.61037 | 9164 ft | 220 kts | 347° |
| 2026-04-16 14:16 | 51.47333 | 0.60682 | 9166 ft | 221 kts | 346° |
| 2026-04-16 14:17 | 51.48858 | 0.60319 | 9164 ft | 221 kts | 346° |
| 2026-04-16 14:17 | 51.50382 | 0.59956 | 9164 ft | 221 kts | 346° |
| 2026-04-16 14:17 | 51.51904 | 0.59596 | 9165 ft | 221 kts | 346° |
| 2026-04-16 14:17 | 51.53436 | 0.59233 | 9165 ft | 222 kts | 346° |
| 2026-04-16 14:18 | 51.54962 | 0.58872 | 9161 ft | 222 kts | 346° |
| 2026-04-16 14:18 | 51.56489 | 0.58509 | 9162 ft | 222 kts | 346° |
| 2026-04-16 14:18 | 51.58014 | 0.58146 | 9162 ft | 222 kts | 346° |
| 2026-04-16 14:18 | 51.59561 | 0.58003 | 9157 ft | 225 kts | 358° |
| 2026-04-16 14:19 | 51.61128 | 0.58156 | 9160 ft | 225 kts | 358° |
| 2026-04-16 14:19 | 51.62691 | 0.58278 | 9160 ft | 225 kts | 357° |
| 2026-04-16 14:19 | 51.64253 | 0.58392 | 9157 ft | 225 kts | 358° |
| 2026-04-16 14:19 | 51.65814 | 0.58511 | 9160 ft | 225 kts | 358° |
| 2026-04-16 14:20 | 51.67376 | 0.58635 | 9162 ft | 225 kts | 358° |
| 2026-04-16 14:20 | 51.68939 | 0.58759 | 9159 ft | 225 kts | 358° |
| 2026-04-16 14:20 | 51.70501 | 0.58875 | 9161 ft | 225 kts | 358° |
| 2026-04-16 14:20 | 51.72060 | 0.58997 | 9161 ft | 225 kts | 358° |
| 2026-04-16 14:21 | 51.73602 | 0.59078 | 9157 ft | 222 kts | 351° |
| 2026-04-16 14:21 | 51.75001 | 0.58277 | 9150 ft | 211 kts | 322° |
| 2026-04-16 14:21 | 51.76201 | 0.56929 | 9155 ft | 210 kts | 319° |
| 2026-04-16 14:21 | 51.77384 | 0.55532 | 9132 ft | 211 kts | 318° |
| 2026-04-16 14:22 | 51.78535 | 0.54177 | 8914 ft | 198 kts | 318° |
| 2026-04-16 14:22 | 51.79622 | 0.52909 | 8652 ft | 189 kts | 318° |
| 2026-04-16 14:22 | 51.80671 | 0.51692 | 8391 ft | 184 kts | 318° |
| 2026-04-16 14:22 | 51.81703 | 0.50489 | 8165 ft | 185 kts | 318° |
| 2026-04-16 14:23 | 51.82776 | 0.49224 | 8167 ft | 195 kts | 318° |
| 2026-04-16 14:23 | 51.83891 | 0.47903 | 8167 ft | 201 kts | 318° |
| 2026-04-16 14:23 | 51.85027 | 0.46546 | 8166 ft | 205 kts | 318° |
| 2026-04-16 14:23 | 51.86178 | 0.45167 | 8165 ft | 206 kts | 318° |
| 2026-04-16 14:24 | 51.87323 | 0.43795 | 8163 ft | 202 kts | 318° |
| 2026-04-16 14:24 | 51.88441 | 0.42458 | 8160 ft | 198 kts | 318° |
| 2026-04-16 14:24 | 51.89545 | 0.41143 | 8156 ft | 196 kts | 318° |
| 2026-04-16 14:24 | 51.90631 | 0.39858 | 8149 ft | 188 kts | 318° |
| 2026-04-16 14:25 | 51.91649 | 0.38676 | 8143 ft | 173 kts | 318° |
| 2026-04-16 14:25 | 51.92286 | 0.37946 | 8145 ft | 167 kts | 318° |
| 2026-04-16 14:25 | 51.93218 | 0.36893 | 8145 ft | 161 kts | 318° |
| 2026-04-16 14:25 | 51.94127 | 0.35868 | 8113 ft | 158 kts | 318° |
| 2026-04-16 14:26 | 51.95053 | 0.34822 | 7521 ft | 167 kts | 318° |
| 2026-04-16 14:26 | 51.96012 | 0.33724 | 6978 ft | 169 kts | 318° |
| 2026-04-16 14:26 | 51.96972 | 0.32618 | 6436 ft | 170 kts | 318° |
| 2026-04-16 14:26 | 51.97934 | 0.31495 | 5893 ft | 170 kts | 318° |
| 2026-04-16 14:27 | 51.98897 | 0.30364 | 5350 ft | 171 kts | 318° |
| 2026-04-16 14:27 | 51.99854 | 0.29231 | 4806 ft | 170 kts | 318° |
| 2026-04-16 14:27 | 52.00810 | 0.28089 | 4257 ft | 170 kts | 318° |
| 2026-04-16 14:27 | 52.01757 | 0.26947 | 3762 ft | 167 kts | 318° |
| 2026-04-16 14:28 | 52.02801 | 0.26141 | 3304 ft | 172 kts | 350° |
| 2026-04-16 14:28 | 52.03954 | 0.26639 | 2845 ft | 177 kts | 36° |
| 2026-04-16 14:28 | 52.04612 | 0.28264 | 2405 ft | 176 kts | 79° |
| 2026-04-16 14:28 | 52.04611 | 0.30218 | 2002 ft | 169 kts | 98° |
| 2026-04-16 14:29 | 52.04515 | 0.32010 | 1975 ft | 160 kts | 97° |
| 2026-04-16 14:29 | 52.04413 | 0.33890 | 1984 ft | 172 kts | 98° |
| 2026-04-16 14:29 | 52.04294 | 0.35867 | 1986 ft | 178 kts | 99° |
| 2026-04-16 14:29 | 52.04107 | 0.37870 | 1984 ft | 181 kts | 102° |
| 2026-04-16 14:30 | 52.03605 | 0.39668 | 1981 ft | 174 kts | 139° |
| 2026-04-16 14:30 | 52.02545 | 0.40428 | 1983 ft | 166 kts | 175° |
| 2026-04-16 14:30 | 52.01391 | 0.40614 | 1987 ft | 168 kts | 178° |
| 2026-04-16 14:30 | 52.00227 | 0.40792 | 1985 ft | 168 kts | 178° |
| 2026-04-16 14:31 | 51.99058 | 0.40971 | 1983 ft | 168 kts | 178° |
| 2026-04-16 14:31 | 51.97893 | 0.41156 | 1984 ft | 168 kts | 178° |
| 2026-04-16 14:31 | 51.96747 | 0.41159 | 1979 ft | 165 kts | 193° |
| 2026-04-16 14:31 | 51.95668 | 0.40596 | 1967 ft | 158 kts | 212° |
| 2026-04-16 14:32 | 51.95002 | 0.39325 | 1959 ft | 144 kts | 249° |
| 2026-04-16 14:32 | 51.94617 | 0.37934 | 1989 ft | 129 kts | 234° |
| 2026-04-16 14:32 | 51.94236 | 0.36597 | 1840 ft | 136 kts | 249° |
| 2026-04-16 14:32 | 51.93925 | 0.35147 | 1707 ft | 136 kts | 248° |
| 2026-04-16 14:33 | 51.93601 | 0.33641 | 1558 ft | 143 kts | 249° |
| 2026-04-16 14:33 | 51.93240 | 0.32139 | 1375 ft | 140 kts | 244° |
| 2026-04-16 14:33 | 51.92865 | 0.30898 | 1342 ft | 113 kts | 240° |
| 2026-04-16 14:33 | 51.92450 | 0.29828 | 1161 ft | 110 kts | 234° |
| 2026-04-16 14:34 | 51.91988 | 0.28892 | 1032 ft | 106 kts | 225° |
| 2026-04-16 14:34 | 51.91476 | 0.28040 | 928 ft | 106 kts | 225° |
| 2026-04-16 14:34 | 51.90953 | 0.27207 | 794 ft | 105 kts | 224° |
| 2026-04-16 14:34 | 51.90433 | 0.26433 | 657 ft | 97 kts | 224° |
| 2026-04-16 14:35 | 51.89968 | 0.25669 | 542 ft | 95 kts | 223° |
| 2026-04-16 14:35 | 51.89469 | 0.24928 | 396 ft | 99 kts | 224° |
| 2026-04-16 14:35 | 51.88998 | 0.24219 | 333 ft | 76 kts | 223° |
| 2026-04-16 14:35 | 51.88685 | 0.23749 | 330 ft | 47 kts | 224° |
| 2026-04-16 14:36 | 51.88499 | 0.23472 | 331 ft | 35 kts | 221° |
| 2026-04-16 14:36 | 51.88344 | 0.23206 | 329 ft | 25 kts | 264° |
| 2026-04-16 14:36 | 51.88389 | 0.23017 | 328 ft | 14 kts | 294° |
| 2026-04-16 14:36 | 51.88343 | 0.22852 | 328 ft | 26 kts | 224° |
| 2026-04-16 14:37 | 51.88198 | 0.22635 | 329 ft | 15 kts | 223° |
| 2026-04-16 14:37 | 51.88224 | 0.22567 | 330 ft | 10 kts | 337° |
| 2026-04-16 14:37 | 51.88249 | 0.22528 | 330 ft | 0 kts | 313° |